Time;durP1;ratioP1;P1;durP2;ratioP2;P2;SDS_P1;SDS_P2;PMS_P1;PMS_P2;Temp;Humidity;BMP_temperature;BMP_pressure;BME280_temperature;BME280_humidity;BME280_pressure;Samples;Min_cycle;Max_cycle;Signal;HPM_P1;HPM_P2
2023/10/01 00:01:08;;;;;;;16.55;6.90;;;16.80;99.90;;;;;;5109693;28;20426;-85
2023/10/01 00:03:34;;;;;;;18.58;7.00;;;16.80;99.90;;;;;;5109977;28;20024;-85
2023/10/01 00:05:59;;;;;;;16.48;6.38;;;16.80;99.90;;;;;;5091778;28;20478;-87
2023/10/01 00:08:25;;;;;;;17.55;6.50;;;16.80;99.90;;;;;;5109558;28;20026;-85
2023/10/01 00:10:51;;;;;;;19.05;7.22;;;16.80;99.90;;;;;;5089939;28;20035;-87
2023/10/01 00:13:17;;;;;;;16.02;7.20;;;16.70;99.90;;;;;;5108427;28;20016;-85
2023/10/01 00:15:42;;;;;;;16.92;7.07;;;16.70;99.90;;;;;;5080865;28;20076;-87
2023/10/01 00:18:08;;;;;;;17.98;7.07;;;16.70;99.90;;;;;;5071787;28;20496;-87
2023/10/01 00:20:35;;;;;;;18.23;6.85;;;16.70;99.90;;;;;;5089452;28;20036;-85
2023/10/01 00:23:02;;;;;;;17.17;7.13;;;16.70;99.90;;;;;;5090954;28;20028;-87
2023/10/01 00:25:29;;;;;;;16.00;7.55;;;16.70;99.90;;;;;;5109658;28;20015;-87
2023/10/01 00:27:57;;;;;;;15.57;6.78;;;16.70;99.90;;;;;;5109652;28;20038;-85
2023/10/01 00:30:23;;;;;;;19.30;7.55;;;16.70;99.90;;;;;;5090340;28;20054;-87
2023/10/01 00:32:49;;;;;;;17.67;6.90;;;16.60;99.90;;;;;;5109736;28;20040;-84
2023/10/01 00:35:16;;;;;;;17.13;7.22;;;16.70;99.90;;;;;;5110484;28;20030;-85
2023/10/01 00:37:42;;;;;;;16.85;7.15;;;16.70;99.90;;;;;;5109640;28;20046;-86
2023/10/01 00:40:10;;;;;;;22.38;7.45;;;16.70;99.90;;;;;;5091097;28;20482;-87
2023/10/01 00:42:37;;;;;;;16.77;6.57;;;16.70;99.90;;;;;;5109045;28;20436;-87
2023/10/01 00:45:07;;;;;;;18.80;7.40;;;16.70;99.90;;;;;;5090072;28;20528;-86
2023/10/01 00:47:35;;;;;;;14.82;7.35;;;16.70;99.90;;;;;;5109765;28;20111;-86
2023/10/01 00:50:05;;;;;;;16.17;6.90;;;16.70;99.90;;;;;;5109275;28;20027;-87
2023/10/01 00:52:30;;;;;;;18.00;6.68;;;16.70;99.90;;;;;;5109454;28;20027;-86
2023/10/01 00:54:56;;;;;;;18.48;7.22;;;16.60;99.90;;;;;;5109499;28;20024;-88
2023/10/01 00:57:22;;;;;;;19.08;7.47;;;16.60;99.90;;;;;;5109466;28;20384;-84
2023/10/01 00:59:48;;;;;;;18.35;7.60;;;16.60;99.90;;;;;;5089999;28;20514;-86
2023/10/01 01:02:18;;;;;;;16.02;6.75;;;16.60;99.90;;;;;;5108799;28;20499;-85
2023/10/01 01:04:45;;;;;;;16.88;6.80;;;16.60;99.90;;;;;;5110016;28;20397;-85
2023/10/01 01:07:21;;;;;;;18.05;6.82;;;16.60;99.90;;;;;;5112106;28;20751;-85
2023/10/01 01:09:48;;;;;;;17.00;6.65;;;16.60;99.90;;;;;;5095487;28;20092;-87
2023/10/01 01:12:15;;;;;;;14.98;6.80;;;16.50;99.90;;;;;;5112531;28;20046;-86
2023/10/01 01:14:44;;;;;;;18.25;7.57;;;16.50;99.90;;;;;;5093458;28;20061;-87
2023/10/01 01:17:16;;;;;;;17.08;7.47;;;16.50;99.90;;;;;;5094471;28;20032;-86
2023/10/01 01:19:50;;;;;;;18.98;6.70;;;16.40;99.90;;;;;;5112126;28;20466;-87
2023/10/01 01:22:28;;;;;;;17.63;6.57;;;16.40;99.90;;;;;;5112837;28;20035;-85
2023/10/01 01:24:57;;;;;;;17.57;6.93;;;16.40;99.90;;;;;;5074287;28;20561;-84
2023/10/01 01:27:23;;;;;;;15.35;6.57;;;16.40;99.90;;;;;;5092951;28;20027;-84
2023/10/01 01:29:50;;;;;;;21.83;7.00;;;16.40;99.90;;;;;;5095567;28;20038;-86
2023/10/01 01:32:17;;;;;;;20.17;6.95;;;16.40;99.90;;;;;;5094187;28;20042;-86
2023/10/01 01:34:46;;;;;;;15.13;6.15;;;16.40;99.90;;;;;;5112897;28;20491;-85
2023/10/01 01:37:36;;;;;;;18.42;6.55;;;16.40;99.90;;;;;;5113025;28;20023;-87
2023/10/01 01:40:23;;;;;;;17.55;6.32;;;16.40;99.90;;;;;;5094592;28;20050;-84
2023/10/01 01:42:49;;;;;;;20.97;7.33;;;16.30;99.90;;;;;;5113728;28;20027;-84
2023/10/01 01:45:18;;;;;;;13.40;6.13;;;16.40;99.90;;;;;;5089594;28;20017;-87
2023/10/01 01:47:44;;;;;;;17.75;7.13;;;16.30;99.90;;;;;;5094046;28;20047;-86
2023/10/01 01:50:21;;;;;;;23.77;7.65;;;16.30;99.90;;;;;;5094126;28;20040;-86
2023/10/01 01:52:51;;;;;;;16.65;6.40;;;16.30;99.90;;;;;;5112676;28;20051;-86
2023/10/01 01:55:26;;;;;;;19.85;6.47;;;16.30;99.90;;;;;;5111928;28;20028;-84
2023/10/01 01:58:08;;;;;;;21.63;7.15;;;16.30;99.90;;;;;;5113412;28;20030;-86
2023/10/01 02:00:46;;;;;;;20.38;7.03;;;16.30;99.90;;;;;;5093600;28;20452;-85
2023/10/01 02:03:14;;;;;;;16.20;6.95;;;16.30;99.90;;;;;;5112431;28;20061;-87
2023/10/01 02:05:41;;;;;;;16.77;6.32;;;16.30;99.90;;;;;;5093321;28;20024;-87
2023/10/01 02:08:25;;;;;;;17.98;7.82;;;16.30;99.90;;;;;;5110593;28;20067;-85
2023/10/01 02:10:59;;;;;;;20.63;7.00;;;16.30;99.90;;;;;;5112268;28;20019;-84
2023/10/01 02:13:27;;;;;;;16.83;7.22;;;16.30;99.90;;;;;;5113030;28;20073;-84
2023/10/01 02:15:53;;;;;;;14.48;6.38;;;16.20;99.90;;;;;;5112721;28;20028;-85
2023/10/01 02:18:20;;;;;;;16.85;7.00;;;16.20;99.90;;;;;;5093771;28;20032;-87
2023/10/01 02:20:52;;;;;;;15.32;6.38;;;16.30;99.90;;;;;;5111471;28;20239;-87
2023/10/01 02:23:32;;;;;;;18.33;6.65;;;16.30;99.90;;;;;;5111847;28;20043;-86
2023/10/01 02:26:00;;;;;;;15.85;6.32;;;16.30;99.90;;;;;;5092842;28;20038;-87
2023/10/01 02:28:27;;;;;;;16.02;7.18;;;16.20;99.90;;;;;;5112158;28;20046;-85
2023/10/01 02:31:00;;;;;;;17.73;6.60;;;16.20;99.90;;;;;;5093978;28;20027;-85
2023/10/01 02:33:55;;;;;;;15.48;6.50;;;16.30;99.90;;;;;;5093699;28;20428;-85
2023/10/01 02:36:13;;;;;;;13.63;6.15;;;16.30;99.90;;;;;;5111458;28;20031;-85
2023/10/01 02:38:45;;;;;;;23.77;7.05;;;16.20;99.90;;;;;;5111306;28;20031;-85
2023/10/01 02:41:14;;;;;;;13.95;6.13;;;16.20;99.90;;;;;;5110937;28;20035;-84
2023/10/01 02:43:41;;;;;;;18.25;7.32;;;16.20;99.90;;;;;;5111598;28;20019;-84
2023/10/01 02:46:12;;;;;;;17.85;6.10;;;16.20;99.90;;;;;;5093156;28;20020;-88
2023/10/01 02:48:42;;;;;;;16.15;7.22;;;16.20;99.90;;;;;;5110208;28;20019;-87
2023/10/01 02:51:14;;;;;;;18.55;6.95;;;16.20;99.90;;;;;;5110594;28;20028;-85
2023/10/01 02:54:05;;;;;;;18.10;7.07;;;16.20;99.90;;;;;;5111277;28;20016;-85
2023/10/01 02:56:37;;;;;;;17.75;6.90;;;16.20;99.90;;;;;;5110945;28;20039;-87
2023/10/01 02:59:23;;;;;;;15.18;6.65;;;16.20;99.90;;;;;;5093172;28;20425;-87
2023/10/01 03:01:49;;;;;;;14.82;6.00;;;16.10;99.90;;;;;;5111233;28;20047;-86
2023/10/01 03:04:16;;;;;;;15.75;6.57;;;16.10;99.90;;;;;;5089727;28;20030;-87
2023/10/01 03:06:57;;;;;;;15.85;6.90;;;16.10;99.90;;;;;;5111215;28;20049;-87
2023/10/01 03:09:32;;;;;;;14.13;6.22;;;16.20;99.90;;;;;;5093103;28;20369;-87
2023/10/01 03:12:24;;;;;;;19.10;6.50;;;16.10;99.90;;;;;;5111428;28;20017;-84
2023/10/01 03:15:35;;;;;;;12.63;6.25;;;16.20;99.90;;;;;;5110699;28;20026;-87
2023/10/01 03:20:58;;;;;;;18.25;6.55;;;16.10;99.90;;;;;;5081826;28;20512;-85
2023/10/01 03:23:12;;;;;;;17.27;6.68;;;16.00;99.90;;;;;;5110332;28;20088;-86
2023/10/01 03:25:42;;;;;;;15.05;6.38;;;16.00;99.90;;;;;;5107620;28;20027;-85
2023/10/01 03:28:25;;;;;;;14.07;5.90;;;16.00;99.90;;;;;;5091615;28;20043;-87
2023/10/01 03:31:01;;;;;;;17.38;6.95;;;16.00;99.90;;;;;;5110651;28;20486;-87
2023/10/01 03:33:29;;;;;;;14.10;6.20;;;16.00;99.90;;;;;;5092567;28;20023;-86
2023/10/01 03:35:57;;;;;;;17.95;6.88;;;16.00;99.90;;;;;;5093183;28;20024;-85
2023/10/01 03:38:23;;;;;;;21.05;6.70;;;16.00;99.90;;;;;;5103571;28;20020;-86
2023/10/01 03:40:59;;;;;;;17.95;6.70;;;16.00;99.90;;;;;;5104573;28;20154;-86
2023/10/01 03:43:35;;;;;;;16.60;6.30;;;16.00;99.90;;;;;;5083314;28;20346;-84
2023/10/01 03:46:19;;;;;;;19.50;7.00;;;16.00;99.90;;;;;;5103772;28;20030;-84
2023/10/01 03:48:57;;;;;;;15.25;6.32;;;16.00;99.90;;;;;;5088722;28;20445;-84
2023/10/01 03:51:52;;;;;;;21.95;6.85;;;15.90;99.90;;;;;;5091267;28;20058;-87
2023/10/01 03:54:20;;;;;;;15.75;6.30;;;15.90;99.90;;;;;;5090167;27;20107;-84
2023/10/01 03:56:56;;;;;;;18.92;6.70;;;16.00;99.90;;;;;;5129597;27;20561;-84
2023/10/01 03:59:32;;;;;;;16.92;6.35;;;15.90;99.90;;;;;;5109452;27;20023;-84
2023/10/01 04:01:59;;;;;;;13.60;6.18;;;15.90;99.90;;;;;;5091910;28;20039;-86
2023/10/01 04:04:32;;;;;;;16.60;6.82;;;16.00;99.90;;;;;;5090439;28;20027;-84
2023/10/01 04:07:10;;;;;;;13.73;6.20;;;15.90;99.90;;;;;;5092370;28;20504;-83
2023/10/01 04:09:46;;;;;;;15.88;6.35;;;15.90;99.90;;;;;;5109313;28;20042;-86
2023/10/01 04:12:53;;;;;;;14.45;6.18;;;15.90;99.90;;;;;;5097543;28;20022;-83
2023/10/01 04:15:09;;;;;;;11.63;5.90;;;15.90;99.90;;;;;;5103720;27;20403;-88
2023/10/01 04:18:08;;;;;;;17.85;6.22;;;15.80;99.90;;;;;;5099456;28;20096;-84
2023/10/01 04:20:28;;;;;;;12.02;6.15;;;15.80;99.90;;;;;;5094000;28;20419;-83
2023/10/01 04:23:04;;;;;;;12.63;6.10;;;15.80;99.90;;;;;;5083169;28;20122;-83
2023/10/01 04:25:36;;;;;;;15.07;6.53;;;15.80;99.90;;;;;;5089269;28;20028;-84
2023/10/01 04:28:05;;;;;;;14.07;5.60;;;15.80;99.90;;;;;;5105787;28;20041;-86
2023/10/01 04:30:34;;;;;;;14.85;5.85;;;15.80;99.90;;;;;;5102312;28;20102;-86
2023/10/01 04:33:18;;;;;;;19.40;6.78;;;15.80;99.90;;;;;;5102042;27;20054;-87
2023/10/01 04:35:58;;;;;;;17.00;6.45;;;15.80;99.90;;;;;;5108461;28;20023;-84
2023/10/01 04:38:28;;;;;;;17.15;6.55;;;15.80;99.90;;;;;;5103427;28;20412;-85
2023/10/01 04:40:55;;;;;;;16.08;6.68;;;15.80;99.90;;;;;;5099427;28;20046;-85
2023/10/01 04:43:21;;;;;;;15.40;6.00;;;15.80;99.90;;;;;;5081271;28;20028;-85
2023/10/01 04:45:52;;;;;;;18.20;6.13;;;15.80;99.90;;;;;;5074100;28;20035;-86
2023/10/01 04:48:23;;;;;;;13.82;6.40;;;15.90;99.90;;;;;;5105264;28;20513;-84
2023/10/01 04:50:53;;;;;;;13.65;6.72;;;15.90;99.90;;;;;;5109196;28;20028;-84
2023/10/01 04:53:25;;;;;;;20.02;6.60;;;15.90;99.90;;;;;;5108706;28;20019;-83
2023/10/01 04:56:05;;;;;;;15.88;6.15;;;15.90;99.90;;;;;;5108939;28;20020;-84
2023/10/01 04:58:38;;;;;;;19.85;6.40;;;15.90;99.90;;;;;;5109991;28;20015;-85
2023/10/01 05:01:10;;;;;;;13.88;5.97;;;15.90;99.90;;;;;;5105083;28;20521;-82
2023/10/01 05:03:39;;;;;;;17.00;6.38;;;15.90;99.90;;;;;;5109595;28;20025;-82
2023/10/01 05:06:08;;;;;;;17.48;6.75;;;15.90;99.90;;;;;;5109237;28;20024;-82
2023/10/01 05:08:38;;;;;;;17.52;6.65;;;15.90;99.90;;;;;;5093343;28;20032;-83
2023/10/01 05:11:10;;;;;;;16.88;6.60;;;15.90;99.90;;;;;;5109650;28;20055;-83
2023/10/01 05:13:48;;;;;;;16.17;6.50;;;15.80;99.90;;;;;;5108762;28;20028;-83
2023/10/01 05:16:18;;;;;;;14.75;6.43;;;15.80;99.90;;;;;;5110359;28;20032;-84
2023/10/01 05:18:45;;;;;;;14.57;6.38;;;15.70;99.90;;;;;;5107265;28;20537;-87
2023/10/01 05:21:18;;;;;;;15.85;6.32;;;15.80;99.90;;;;;;5093608;28;20509;-84
2023/10/01 05:23:45;;;;;;;17.08;6.95;;;15.80;99.90;;;;;;5108400;28;20024;-84
2023/10/01 05:26:11;;;;;;;17.13;6.50;;;15.80;99.90;;;;;;5114744;28;20027;-87
2023/10/01 05:28:41;;;;;;;16.40;6.45;;;15.80;99.90;;;;;;5111046;28;20071;-84
2023/10/01 05:31:08;;;;;;;18.40;7.00;;;15.80;99.90;;;;;;5101067;28;20068;-84
2023/10/01 05:33:35;;;;;;;15.50;6.15;;;15.80;99.90;;;;;;5104122;28;20054;-83
2023/10/01 05:36:05;;;;;;;16.73;6.70;;;15.80;99.90;;;;;;5091867;28;20460;-83
2023/10/01 05:38:35;;;;;;;14.77;6.25;;;15.80;99.90;;;;;;5107661;28;20034;-83
2023/10/01 05:41:13;;;;;;;16.35;5.85;;;15.80;99.90;;;;;;5083292;28;20039;-85
2023/10/01 05:43:43;;;;;;;11.75;6.47;;;15.80;99.90;;;;;;5086448;28;20027;-83
2023/10/01 05:46:10;;;;;;;13.52;5.90;;;15.70;99.90;;;;;;5087840;28;20063;-84
2023/10/01 05:48:39;;;;;;;13.63;6.28;;;15.70;99.90;;;;;;5105456;28;20077;-84
2023/10/01 05:51:09;;;;;;;;;;;15.70;99.90;;;;;;5109549;28;20036;-84
2023/10/01 05:53:36;;;;;;;16.48;6.53;;;15.60;99.90;;;;;;5109826;28;19918;-85
2023/10/01 05:56:11;;;;;;;14.73;6.22;;;15.60;99.90;;;;;;5111098;28;20023;-83
2023/10/01 05:58:42;;;;;;;15.57;5.88;;;15.50;99.90;;;;;;5091312;28;20028;-82
2023/10/01 06:01:16;;;;;;;15.35;6.13;;;15.60;99.90;;;;;;5106432;28;20092;-84
2023/10/01 06:03:44;;;;;;;16.95;6.78;;;15.60;99.90;;;;;;5113646;28;20020;-87
2023/10/01 06:06:36;;;;;;;14.27;6.97;;;15.70;99.90;;;;;;5111959;28;20032;-85
2023/10/01 06:09:00;;;;;;;17.45;6.70;;;15.70;99.90;;;;;;5111552;28;20040;-84
2023/10/01 06:11:41;;;;;;;18.35;7.00;;;15.70;99.90;;;;;;5094206;28;20592;-86
2023/10/01 06:14:36;;;;;;;18.90;6.95;;;15.70;99.90;;;;;;5094097;28;20563;-85
2023/10/01 06:17:00;;;;;;;16.05;7.03;;;15.70;99.90;;;;;;5111943;28;20031;-85
2023/10/01 06:19:26;;;;;;;;;;;15.70;99.90;;;;;;5110509;28;20051;-85
2023/10/01 06:22:12;;;;;;;14.18;6.68;;;15.60;99.90;;;;;;5112036;28;19911;-86
2023/10/01 06:24:43;;;;;;;15.15;6.78;;;15.60;99.90;;;;;;5112925;28;20535;-86
2023/10/01 06:27:09;;;;;;;21.75;6.47;;;15.60;99.90;;;;;;5112245;28;20023;-86
2023/10/01 06:29:49;;;;;;;14.05;6.53;;;15.70;99.90;;;;;;5112533;28;20028;-85
2023/10/01 06:32:21;;;;;;;16.35;6.97;;;15.70;99.90;;;;;;5093569;28;20487;-88
2023/10/01 06:34:49;;;;;;;18.17;6.60;;;15.70;99.90;;;;;;5090117;28;20032;-87
2023/10/01 06:37:15;;;;;;;16.10;6.60;;;15.70;99.90;;;;;;5073737;28;20032;-87
2023/10/01 06:39:41;;;;;;;16.73;6.35;;;15.80;99.90;;;;;;5091870;28;20630;-89
2023/10/01 06:42:20;;;;;;;14.07;6.13;;;15.80;99.90;;;;;;5092609;28;20020;-88
2023/10/01 06:44:55;;;;;;;15.93;6.55;;;15.90;99.90;;;;;;5073401;28;20111;-87
2023/10/01 06:47:26;;;;;;;17.55;6.88;;;15.90;99.90;;;;;;5073758;28;20039;-87
2023/10/01 06:52:35;;;;;;;15.35;6.78;;;16.00;99.90;;;;;;5091620;28;20024;-86
2023/10/01 06:55:02;;;;;;;18.33;7.18;;;15.90;99.90;;;;;;5106040;28;20039;-87
2023/10/01 06:57:31;;;;;;;18.13;6.43;;;15.90;99.90;;;;;;5092989;28;20035;-89
2023/10/01 06:59:57;;;;;;;23.77;7.22;;;16.00;99.90;;;;;;5112194;28;20482;-88
2023/10/01 07:02:25;;;;;;;22.23;7.53;;;16.00;99.90;;;;;;5110779;28;20039;-90
2023/10/01 07:04:56;;;;;;;16.77;7.38;;;16.10;99.90;;;;;;5094126;28;20023;-88
2023/10/01 07:07:23;;;;;;;18.13;7.28;;;16.20;99.90;;;;;;5112704;28;20031;-87
2023/10/01 07:09:49;;;;;;;16.30;6.85;;;16.20;99.90;;;;;;5094120;28;20069;-89
2023/10/01 07:12:17;;;;;;;15.82;6.50;;;16.20;99.90;;;;;;5112264;28;20036;-88
2023/10/01 07:14:43;;;;;;;17.40;6.53;;;16.20;99.90;;;;;;5112086;28;20019;-87
2023/10/01 07:17:14;;;;;;;18.42;6.88;;;16.30;99.90;;;;;;5098860;28;20035;-87
2023/10/01 07:19:43;;;;;;;18.40;6.93;;;16.40;99.90;;;;;;5073933;28;20024;-91
2023/10/01 07:22:09;;;;;;;17.55;7.38;;;16.40;99.90;;;;;;5073833;28;20494;-87
2023/10/01 07:24:36;;;;;;;22.85;7.18;;;16.50;99.90;;;;;;5073019;28;20020;-89
2023/10/01 07:27:11;;;;;;;15.35;6.40;;;16.60;99.90;;;;;;5073146;28;20406;-88
2023/10/01 07:29:42;;;;;;;15.82;6.55;;;16.70;99.90;;;;;;5086058;28;20058;-86
2023/10/01 07:32:12;;;;;;;15.65;6.38;;;16.70;99.90;;;;;;5105732;28;20043;-86
2023/10/01 07:34:48;;;;;;;16.80;6.32;;;16.80;99.90;;;;;;5111151;28;20034;-87
2023/10/01 07:37:23;;;;;;;16.55;6.95;;;16.90;99.90;;;;;;5109620;28;20027;-86
2023/10/01 07:40:01;;;;;;;17.08;6.50;;;17.00;99.90;;;;;;5109220;28;20038;-86
2023/10/01 07:42:27;;;;;;;20.38;6.80;;;17.10;99.90;;;;;;5092146;28;20031;-88
2023/10/01 07:44:53;;;;;;;15.48;6.82;;;17.10;99.90;;;;;;5110523;28;20103;-89
2023/10/01 07:47:29;;;;;;;16.60;6.93;;;17.30;99.90;;;;;;5092380;28;20039;-90
2023/10/01 07:50:02;;;;;;;16.35;6.45;;;17.30;99.90;;;;;;5110210;28;20043;-90
2023/10/01 07:52:29;;;;;;;15.82;6.78;;;17.40;99.90;;;;;;5092647;28;20016;-90
2023/10/01 07:54:56;;;;;;;15.18;6.15;;;17.50;99.90;;;;;;5091521;28;20431;-88
2023/10/01 07:57:28;;;;;;;18.80;7.13;;;17.60;99.90;;;;;;5110261;28;20035;-90
2023/10/01 07:59:55;;;;;;;18.98;7.10;;;17.70;99.90;;;;;;5108500;28;20028;-89
2023/10/01 08:02:22;;;;;;;18.25;7.05;;;17.80;99.90;;;;;;5097878;28;20032;-88
2023/10/01 08:04:57;;;;;;;19.77;6.93;;;17.90;99.90;;;;;;5079939;28;20114;-89
2023/10/01 08:07:31;;;;;;;18.42;6.95;;;18.00;99.90;;;;;;5089723;28;20024;-88
2023/10/01 08:10:04;;;;;;;18.02;7.03;;;18.10;99.90;;;;;;5094449;27;20477;-86
2023/10/01 08:12:40;;;;;;;18.60;7.35;;;18.10;99.90;;;;;;5098822;28;20399;-86
2023/10/01 08:15:15;;;;;;;14.32;6.47;;;18.20;99.90;;;;;;5108725;28;20019;-88
2023/10/01 08:17:43;;;;;;;14.70;6.68;;;18.30;99.90;;;;;;5086933;28;20039;-87
2023/10/01 08:20:21;;;;;;;11.85;5.82;;;18.50;99.90;;;;;;5089393;28;20395;-85
2023/10/01 08:25:42;;;;;;;14.77;6.70;;;18.60;99.90;;;;;;5107828;28;20238;-86
2023/10/01 08:30:39;;;;;;;16.58;6.40;;;18.80;99.90;;;;;;5107777;28;20061;-87
2023/10/01 08:36:12;;;;;;;14.55;6.30;;;19.00;99.90;;;;;;5108213;28;20479;-87
2023/10/01 08:39:19;;;;;;;14.98;6.50;;;19.10;99.90;;;;;;5089045;28;20020;-88
2023/10/01 08:41:50;;;;;;;15.63;6.57;;;19.20;99.90;;;;;;5107864;28;20526;-87
2023/10/01 08:44:20;;;;;;;15.82;6.35;;;19.30;99.90;;;;;;5090161;28;20418;-86
2023/10/01 08:46:47;;;;;;;19.48;6.68;;;19.40;99.90;;;;;;5106457;28;20024;-85
2023/10/01 08:49:23;;;;;;;15.10;6.78;;;19.50;99.90;;;;;;5109396;28;20051;-85
2023/10/01 08:52:18;;;;;;;15.02;6.70;;;19.60;99.90;;;;;;5106906;28;20024;-85
2023/10/01 08:54:48;;;;;;;14.60;6.03;;;19.70;99.90;;;;;;5109265;28;20020;-85
2023/10/01 08:57:22;;;;;;;15.57;6.40;;;19.70;99.90;;;;;;5109178;28;20031;-87
2023/10/01 08:59:47;;;;;;;15.07;6.32;;;19.90;99.90;;;;;;5107017;28;20104;-87
2023/10/01 09:02:20;;;;;;;17.60;6.15;;;20.00;99.90;;;;;;5109395;28;20122;-88
2023/10/01 09:04:47;;;;;;;16.27;6.18;;;20.10;99.90;;;;;;5090761;28;20028;-88
2023/10/01 09:07:19;;;;;;;15.40;6.22;;;20.20;99.90;;;;;;5104226;28;20043;-87
2023/10/01 09:10:05;;;;;;;17.02;6.43;;;20.30;99.90;;;;;;5109829;28;20095;-87
2023/10/01 09:12:35;;;;;;;15.20;6.40;;;20.30;99.90;;;;;;5107914;28;20028;-88
2023/10/01 09:15:05;;;;;;;18.17;6.63;;;20.50;99.90;;;;;;5090452;28;20024;-88
2023/10/01 09:17:56;;;;;;;14.98;6.60;;;20.60;99.90;;;;;;5092036;28;20092;-90
2023/10/01 09:20:42;;;;;;;14.45;5.85;;;20.70;99.90;;;;;;5108280;28;20020;-85
2023/10/01 09:23:08;;;;;;;13.35;6.60;;;20.80;99.90;;;;;;5089945;28;20406;-85
2023/10/01 09:25:39;;;;;;;14.47;6.23;;;20.90;99.90;;;;;;5109058;28;20056;-84
2023/10/01 09:28:29;;;;;;;13.45;5.97;;;21.00;99.90;;;;;;5111155;28;20249;-89
2023/10/01 09:31:52;;;;;;;15.23;5.63;;;21.00;99.90;;;;;;5108845;27;20020;-89
2023/10/01 09:33:51;;;;;;;15.52;5.95;;;21.10;99.90;;;;;;5096822;28;20038;-87
2023/10/01 09:36:45;;;;;;;12.60;5.57;;;21.20;99.90;;;;;;5113304;28;20066;-86
2023/10/01 09:39:13;;;;;;;12.98;6.28;;;21.30;99.90;;;;;;5110902;28;20023;-88
2023/10/01 09:41:42;;;;;;;14.35;6.25;;;21.40;99.90;;;;;;5094377;28;20406;-90
2023/10/01 09:44:14;;;;;;;15.48;5.80;;;21.40;99.90;;;;;;5112355;28;20031;-87
2023/10/01 09:46:42;;;;;;;16.10;6.10;;;21.50;99.90;;;;;;5113088;28;20061;-86
2023/10/01 09:49:08;;;;;;;13.38;6.18;;;21.60;99.90;;;;;;5112785;28;20028;-89
2023/10/01 09:51:41;;;;;;;10.82;5.57;;;21.70;99.90;;;;;;5112791;28;20437;-89
2023/10/01 09:54:11;;;;;;;11.27;5.28;;;21.80;99.90;;;;;;5092253;28;20123;-86
2023/10/01 09:56:49;;;;;;;15.30;6.18;;;21.80;99.90;;;;;;5093845;28;20020;-87
2023/10/01 09:59:15;;;;;;;19.75;8.25;;;21.80;99.90;;;;;;5113452;28;20031;-88
2023/10/01 10:01:43;;;;;;;16.25;7.50;;;21.90;99.90;;;;;;5111902;28;20035;-86
2023/10/01 10:04:10;;;;;;;18.27;5.88;;;21.90;99.90;;;;;;5112217;28;20320;-89
2023/10/01 10:06:41;;;;;;;12.75;5.88;;;22.00;99.90;;;;;;5093515;28;20031;-86
2023/10/01 10:09:26;;;;;;;14.25;6.30;;;22.10;99.90;;;;;;5107254;28;20098;-91
2023/10/01 10:11:52;;;;;;;18.38;5.97;;;22.10;99.90;;;;;;5101197;28;20032;-88
2023/10/01 10:14:25;;;;;;;20.05;5.90;;;22.10;99.90;;;;;;5112239;28;20023;-86
2023/10/01 10:17:18;;;;;;;12.52;5.05;;;22.20;99.90;;;;;;5111758;28;20030;-86
2023/10/01 10:20:24;;;;;;;12.23;5.50;;;22.20;99.90;;;;;;5111215;28;20072;-87
2023/10/01 10:23:29;;;;;;;13.07;5.60;;;22.30;99.90;;;;;;5110465;28;20030;-87
2023/10/01 10:26:14;;;;;;;11.52;5.30;;;22.50;99.90;;;;;;5091687;28;20494;-91
2023/10/01 10:28:54;;;;;;;11.98;5.53;;;22.50;99.90;;;;;;5110245;28;20444;-86
2023/10/01 10:31:30;;;;;;;13.30;5.38;;;22.50;99.90;;;;;;5111627;28;20032;-86
2023/10/01 10:34:21;;;;;;;13.05;5.63;;;22.70;99.90;;;;;;5111854;28;20027;-89
2023/10/01 10:36:55;;;;;;;13.07;5.75;;;22.80;99.90;;;;;;5112410;28;20028;-86
2023/10/01 10:39:47;;;;;;;11.68;4.97;;;22.80;99.90;;;;;;5101778;28;20016;-85
2023/10/01 10:42:29;;;;;;;13.57;6.03;;;22.80;99.90;;;;;;5111564;28;20424;-85
2023/10/01 10:45:19;;;;;;;11.95;5.30;;;22.90;99.90;;;;;;5092909;28;20062;-90
2023/10/01 10:48:02;;;;;;;13.77;5.90;;;23.10;99.90;;;;;;5092671;28;20118;-86
2023/10/01 10:50:53;;;;;;;16.65;5.75;;;23.10;99.90;;;;;;5090282;28;20441;-86
2023/10/01 10:53:24;;;;;;;12.05;5.18;;;23.20;99.90;;;;;;5080656;28;20028;-84
2023/10/01 10:56:07;;;;;;;18.20;5.60;;;23.20;99.90;;;;;;5111461;28;20031;-87
2023/10/01 10:58:45;;;;;;;13.27;5.78;;;23.30;99.90;;;;;;5091074;28;20410;-88
2023/10/01 11:01:21;;;;;;;14.20;5.70;;;23.30;99.90;;;;;;5110649;28;20067;-86
2023/10/01 11:03:58;;;;;;;11.05;4.85;;;23.40;99.90;;;;;;5110347;28;20032;-85
2023/10/01 11:06:39;;;;;;;14.07;5.53;;;23.40;99.90;;;;;;5110967;28;20019;-86
2023/10/01 11:09:25;;;;;;;11.80;5.32;;;23.40;99.90;;;;;;5111115;28;20034;-85
2023/10/01 11:12:05;;;;;;;9.63;5.05;;;23.40;99.90;;;;;;5111812;28;20031;-85
2023/10/01 11:14:36;;;;;;;12.50;5.68;;;23.50;99.90;;;;;;5109836;28;20023;-87
2023/10/01 11:17:01;;;;;;;14.13;4.80;;;23.50;99.90;;;;;;5095622;28;20056;-86
2023/10/01 11:19:35;;;;;;;10.90;4.78;;;23.50;99.90;;;;;;5092565;28;20058;-86
2023/10/01 11:22:02;;;;;;;11.27;4.70;;;23.50;99.90;;;;;;5110759;28;20030;-86
2023/10/01 11:24:33;;;;;;;10.15;5.18;;;23.50;99.90;;;;;;5109627;28;20024;-85
2023/10/01 11:27:17;;;;;;;11.10;4.85;;;23.50;99.90;;;;;;5092471;28;20119;-88
2023/10/01 11:29:43;;;;;;;9.63;4.90;;;23.60;99.90;;;;;;5102632;28;20073;-87
2023/10/01 11:32:16;;;;;;;11.30;4.85;;;23.60;99.90;;;;;;5110830;28;20034;-88
2023/10/01 11:34:43;;;;;;;9.05;4.47;;;23.60;99.90;;;;;;5108702;28;20578;-90
2023/10/01 11:37:18;;;;;;;12.63;4.70;;;23.60;99.90;;;;;;5111220;28;20024;-90
2023/10/01 11:39:52;;;;;;;11.43;4.85;;;23.70;99.90;;;;;;5110930;28;20265;-89
2023/10/01 11:42:38;;;;;;;10.10;5.00;;;23.70;99.90;;;;;;5091508;28;20066;-90
2023/10/01 11:45:29;;;;;;;10.77;4.38;;;23.80;99.90;;;;;;5090684;28;20139;-91
2023/10/01 11:48:19;;;;;;;10.82;4.38;;;23.80;99.90;;;;;;5093391;28;20032;-87
2023/10/01 11:50:50;;;;;;;9.77;4.32;;;23.80;99.90;;;;;;5091395;28;20253;-90
2023/10/01 11:53:28;;;;;;;10.73;4.00;;;23.70;99.90;;;;;;5106730;28;20016;-89
2023/10/01 11:56:01;;;;;;;11.68;4.32;;;23.70;99.90;;;;;;5110978;28;20022;-86
2023/10/01 11:58:32;;;;;;;8.35;3.97;;;23.80;99.90;;;;;;5092111;28;20023;-91
2023/10/01 12:01:00;;;;;;;8.73;3.88;;;23.80;99.90;;;;;;5081366;28;20107;-86
2023/10/01 12:03:26;;;;;;;10.35;4.40;;;23.90;99.90;;;;;;5111495;28;20471;-92
2023/10/01 12:05:56;;;;;;;8.32;3.70;;;24.00;99.90;;;;;;5092350;28;20115;-89
2023/10/01 12:08:35;;;;;;;12.02;4.35;;;24.00;99.90;;;;;;5099025;28;20592;-92
2023/10/01 12:11:26;;;;;;;9.18;4.53;;;24.00;99.90;;;;;;5090091;28;20032;-92
2023/10/01 12:14:04;;;;;;;12.02;5.95;;;24.20;99.90;;;;;;5109983;28;20119;-94
2023/10/01 12:16:34;;;;;;;9.25;5.03;;;24.20;99.90;;;;;;5102845;28;20023;-95
2023/10/01 12:21:48;;;;;;;10.13;4.55;;;24.30;99.90;;;;;;5108501;28;20623;-92
2023/10/01 12:24:15;;;;;;;9.80;4.20;;;24.40;99.90;;;;;;5091842;28;20064;-85
2023/10/01 12:26:43;;;;;;;8.90;4.78;;;24.50;99.90;;;;;;5109471;28;20028;-85
2023/10/01 12:29:13;;;;;;;9.38;4.45;;;24.50;99.90;;;;;;5108624;28;20032;-87
2023/10/01 12:31:45;;;;;;;13.52;6.25;;;24.50;99.90;;;;;;5109744;28;20102;-90
2023/10/01 12:34:11;;;;;;;14.25;6.07;;;24.60;99.90;;;;;;5091196;28;20482;-86
2023/10/01 12:36:47;;;;;;;11.10;6.35;;;24.60;99.90;;;;;;5090984;28;20035;-88
2023/10/01 12:41:48;;;;;;;9.48;5.10;;;24.60;99.90;;;;;;5108609;28;20538;-90
2023/10/01 12:44:38;;;;;;;7.45;4.45;;;24.70;99.90;;;;;;5110000;28;20099;-89
2023/10/01 12:47:07;;;;;;;9.23;4.32;;;24.70;99.90;;;;;;5108722;28;20046;-91
2023/10/01 12:49:36;;;;;;;8.32;4.68;;;24.60;99.90;;;;;;5091578;28;20030;-85
2023/10/01 12:52:04;;;;;;;9.10;4.38;;;24.70;99.90;;;;;;5109970;28;20016;-89
2023/10/01 12:54:36;;;;;;;11.38;4.38;;;24.70;99.90;;;;;;5109682;28;20028;-86
2023/10/01 12:57:18;;;;;;;8.18;3.47;;;24.80;99.90;;;;;;5109802;28;20028;-90
2023/10/01 12:59:46;;;;;;;6.47;3.25;;;24.80;99.90;;;;;;5110836;28;20024;-88
2023/10/01 13:02:22;;;;;;;8.75;3.22;;;24.80;99.90;;;;;;5113231;28;20027;-86
2023/10/01 13:05:19;;;;;;;6.97;3.10;;;24.90;99.90;;;;;;5112505;28;20343;-85
2023/10/01 13:07:47;;;;;;;8.83;3.43;;;25.00;99.90;;;;;;5113746;28;20055;-87
2023/10/01 13:10:13;;;;;;;;;;;25.00;99.90;;;;;;5096070;28;20024;-90
2023/10/01 13:12:39;;;;;;;7.82;3.47;;;25.00;99.90;;;;;;5112804;28;20406;-89
2023/10/01 13:15:14;;;;;;;8.30;3.95;;;25.00;99.90;;;;;;5113812;28;20050;-85
2023/10/01 13:17:44;;;;;;;7.72;3.47;;;25.00;99.90;;;;;;5113984;28;20049;-90
2023/10/01 13:20:22;;;;;;;6.13;2.92;;;25.00;99.90;;;;;;5094570;28;20023;-87
2023/10/01 13:22:51;;;;;;;6.85;3.20;;;25.10;99.90;;;;;;5113691;28;20031;-88
2023/10/01 13:25:23;;;;;;;6.20;3.20;;;25.20;99.90;;;;;;5095043;28;20433;-90
2023/10/01 13:28:01;;;;;;;7.15;3.40;;;25.40;99.90;;;;;;5111778;28;20276;-86